sensor_id;sensor_type;location;lat;lon;timestamp;P1;durP1;ratioP1;P2;durP2;ratioP2
1699;SDS011;847;48.058;7.810;2023-08-01T00:01:37;4.10;;;3.40;;
1699;SDS011;847;48.058;7.810;2023-08-01T00:04:04;4.80;;;3.80;;
1699;SDS011;847;48.058;7.810;2023-08-01T00:06:31;7.77;;;3.77;;
1699;SDS011;847;48.058;7.810;2023-08-01T00:08:58;5.30;;;4.03;;
1699;SDS011;847;48.058;7.810;2023-08-01T00:11:24;6.10;;;5.57;;
1699;SDS011;847;48.058;7.810;2023-08-01T00:13:51;4.90;;;4.07;;
1699;SDS011;847;48.058;7.810;2023-08-01T00:16:18;5.03;;;3.93;;
1699;SDS011;847;48.058;7.810;2023-08-01T00:18:45;4.50;;;3.90;;
1699;SDS011;847;48.058;7.810;2023-08-01T00:21:12;6.03;;;4.60;;
1699;SDS011;847;48.058;7.810;2023-08-01T00:23:38;4.80;;;3.37;;
1699;SDS011;847;48.058;7.810;2023-08-01T00:26:05;4.73;;;3.60;;
1699;SDS011;847;48.058;7.810;2023-08-01T00:28:32;6.57;;;4.37;;
1699;SDS011;847;48.058;7.810;2023-08-01T00:31:03;5.13;;;3.40;;
1699;SDS011;847;48.058;7.810;2023-08-01T00:33:30;3.70;;;3.40;;
1699;SDS011;847;48.058;7.810;2023-08-01T00:35:57;6.30;;;3.73;;
1699;SDS011;847;48.058;7.810;2023-08-01T00:38:24;7.07;;;3.97;;
1699;SDS011;847;48.058;7.810;2023-08-01T00:40:51;4.17;;;3.50;;
1699;SDS011;847;48.058;7.810;2023-08-01T00:43:17;6.30;;;3.73;;
1699;SDS011;847;48.058;7.810;2023-08-01T00:45:44;5.67;;;3.40;;
1699;SDS011;847;48.058;7.810;2023-08-01T00:48:12;3.57;;;3.03;;
1699;SDS011;847;48.058;7.810;2023-08-01T00:50:39;4.70;;;3.70;;
1699;SDS011;847;48.058;7.810;2023-08-01T00:53:06;5.17;;;3.60;;
1699;SDS011;847;48.058;7.810;2023-08-01T00:55:33;4.07;;;3.50;;
1699;SDS011;847;48.058;7.810;2023-08-01T00:58:01;4.57;;;4.00;;
1699;SDS011;847;48.058;7.810;2023-08-01T01:00:28;4.90;;;3.87;;
1699;SDS011;847;48.058;7.810;2023-08-01T01:02:55;7.20;;;4.07;;
1699;SDS011;847;48.058;7.810;2023-08-01T01:05:23;5.50;;;4.20;;
1699;SDS011;847;48.058;7.810;2023-08-01T01:07:51;5.03;;;3.67;;
1699;SDS011;847;48.058;7.810;2023-08-01T01:10:18;5.57;;;3.90;;
1699;SDS011;847;48.058;7.810;2023-08-01T01:12:45;5.03;;;3.83;;
1699;SDS011;847;48.058;7.810;2023-08-01T01:15:15;5.43;;;3.47;;
1699;SDS011;847;48.058;7.810;2023-08-01T01:17:42;6.53;;;3.87;;
1699;SDS011;847;48.058;7.810;2023-08-01T01:20:09;3.87;;;3.47;;
1699;SDS011;847;48.058;7.810;2023-08-01T01:22:37;5.53;;;3.90;;
1699;SDS011;847;48.058;7.810;2023-08-01T01:25:06;5.90;;;3.40;;
1699;SDS011;847;48.058;7.810;2023-08-01T01:27:34;4.93;;;3.67;;
1699;SDS011;847;48.058;7.810;2023-08-01T01:30:03;4.70;;;3.20;;
1699;SDS011;847;48.058;7.810;2023-08-01T01:32:33;3.90;;;3.50;;
1699;SDS011;847;48.058;7.810;2023-08-01T01:35:00;4.90;;;3.40;;
1699;SDS011;847;48.058;7.810;2023-08-01T01:37:29;4.93;;;3.50;;
1699;SDS011;847;48.058;7.810;2023-08-01T01:39:57;5.47;;;3.10;;
1699;SDS011;847;48.058;7.810;2023-08-01T01:42:24;7.00;;;3.40;;
1699;SDS011;847;48.058;7.810;2023-08-01T01:44:50;4.43;;;2.90;;
1699;SDS011;847;48.058;7.810;2023-08-01T01:47:17;7.70;;;3.30;;
1699;SDS011;847;48.058;7.810;2023-08-01T01:49:44;3.23;;;2.93;;
1699;SDS011;847;48.058;7.810;2023-08-01T01:52:11;5.80;;;3.40;;
1699;SDS011;847;48.058;7.810;2023-08-01T01:54:37;3.60;;;3.10;;
1699;SDS011;847;48.058;7.810;2023-08-01T01:57:06;5.20;;;3.57;;
1699;SDS011;847;48.058;7.810;2023-08-01T01:59:32;5.97;;;3.70;;
1699;SDS011;847;48.058;7.810;2023-08-01T02:01:59;6.63;;;3.60;;
1699;SDS011;847;48.058;7.810;2023-08-01T02:04:29;4.03;;;3.13;;
1699;SDS011;847;48.058;7.810;2023-08-01T02:06:55;4.60;;;2.97;;
1699;SDS011;847;48.058;7.810;2023-08-01T02:09:22;3.70;;;3.07;;
1699;SDS011;847;48.058;7.810;2023-08-01T02:11:49;4.30;;;3.13;;
1699;SDS011;847;48.058;7.810;2023-08-01T02:14:17;6.13;;;3.30;;
1699;SDS011;847;48.058;7.810;2023-08-01T02:16:44;3.63;;;3.17;;
1699;SDS011;847;48.058;7.810;2023-08-01T02:19:10;4.00;;;3.30;;
1699;SDS011;847;48.058;7.810;2023-08-01T02:21:37;7.90;;;3.33;;
1699;SDS011;847;48.058;7.810;2023-08-01T02:24:04;3.60;;;2.57;;
1699;SDS011;847;48.058;7.810;2023-08-01T02:26:31;3.80;;;2.93;;
1699;SDS011;847;48.058;7.810;2023-08-01T02:28:57;4.20;;;3.13;;
1699;SDS011;847;48.058;7.810;2023-08-01T02:31:25;4.13;;;3.20;;
1699;SDS011;847;48.058;7.810;2023-08-01T02:33:52;5.00;;;3.13;;
1699;SDS011;847;48.058;7.810;2023-08-01T02:36:19;4.93;;;3.10;;
1699;SDS011;847;48.058;7.810;2023-08-01T02:38:46;6.70;;;3.07;;
1699;SDS011;847;48.058;7.810;2023-08-01T02:41:12;5.33;;;3.23;;
1699;SDS011;847;48.058;7.810;2023-08-01T02:43:39;4.27;;;2.87;;
1699;SDS011;847;48.058;7.810;2023-08-01T02:46:06;5.70;;;3.23;;
1699;SDS011;847;48.058;7.810;2023-08-01T02:48:34;5.10;;;3.57;;
1699;SDS011;847;48.058;7.810;2023-08-01T02:51:01;4.13;;;3.20;;
1699;SDS011;847;48.058;7.810;2023-08-01T02:53:28;4.80;;;3.23;;
1699;SDS011;847;48.058;7.810;2023-08-01T02:55:55;4.40;;;2.70;;
1699;SDS011;847;48.058;7.810;2023-08-01T02:58:21;4.97;;;3.50;;
1699;SDS011;847;48.058;7.810;2023-08-01T03:00:48;4.87;;;3.33;;
1699;SDS011;847;48.058;7.810;2023-08-01T03:03:15;6.90;;;3.30;;
1699;SDS011;847;48.058;7.810;2023-08-01T03:05:43;6.40;;;3.83;;
1699;SDS011;847;48.058;7.810;2023-08-01T03:08:10;6.00;;;3.80;;
1699;SDS011;847;48.058;7.810;2023-08-01T03:10:38;4.03;;;2.93;;
1699;SDS011;847;48.058;7.810;2023-08-01T03:13:05;4.67;;;3.20;;
1699;SDS011;847;48.058;7.810;2023-08-01T03:15:31;3.67;;;2.87;;
1699;SDS011;847;48.058;7.810;2023-08-01T03:17:58;4.60;;;3.07;;
1699;SDS011;847;48.058;7.810;2023-08-01T03:20:25;4.73;;;3.87;;
1699;SDS011;847;48.058;7.810;2023-08-01T03:22:53;4.23;;;2.93;;
1699;SDS011;847;48.058;7.810;2023-08-01T03:25:20;4.27;;;3.20;;
1699;SDS011;847;48.058;7.810;2023-08-01T03:27:47;7.13;;;3.00;;
1699;SDS011;847;48.058;7.810;2023-08-01T03:30:13;5.70;;;3.40;;
1699;SDS011;847;48.058;7.810;2023-08-01T03:32:40;4.37;;;3.30;;
1699;SDS011;847;48.058;7.810;2023-08-01T03:35:07;5.60;;;3.70;;
1699;SDS011;847;48.058;7.810;2023-08-01T03:37:34;4.37;;;3.13;;
1699;SDS011;847;48.058;7.810;2023-08-01T03:40:02;4.20;;;3.00;;
1699;SDS011;847;48.058;7.810;2023-08-01T03:42:29;3.80;;;3.30;;
1699;SDS011;847;48.058;7.810;2023-08-01T03:44:56;4.27;;;3.53;;
1699;SDS011;847;48.058;7.810;2023-08-01T03:47:23;5.37;;;3.03;;
1699;SDS011;847;48.058;7.810;2023-08-01T03:49:49;4.03;;;3.07;;
1699;SDS011;847;48.058;7.810;2023-08-01T03:52:16;5.13;;;3.30;;
1699;SDS011;847;48.058;7.810;2023-08-01T03:54:44;5.60;;;3.47;;
1699;SDS011;847;48.058;7.810;2023-08-01T03:57:13;5.50;;;2.90;;
1699;SDS011;847;48.058;7.810;2023-08-01T03:59:40;5.17;;;3.50;;
1699;SDS011;847;48.058;7.810;2023-08-01T04:02:07;3.97;;;2.87;;
1699;SDS011;847;48.058;7.810;2023-08-01T04:04:34;4.60;;;3.40;;
1699;SDS011;847;48.058;7.810;2023-08-01T04:07:01;7.57;;;3.77;;
1699;SDS011;847;48.058;7.810;2023-08-01T04:09:27;6.77;;;3.97;;
1699;SDS011;847;48.058;7.810;2023-08-01T04:11:54;6.73;;;3.63;;
1699;SDS011;847;48.058;7.810;2023-08-01T04:14:22;7.93;;;5.30;;
1699;SDS011;847;48.058;7.810;2023-08-01T04:16:49;4.40;;;3.30;;
1699;SDS011;847;48.058;7.810;2023-08-01T04:19:16;5.90;;;3.20;;
1699;SDS011;847;48.058;7.810;2023-08-01T04:21:42;7.47;;;3.60;;
1699;SDS011;847;48.058;7.810;2023-08-01T04:24:09;6.60;;;3.70;;
1699;SDS011;847;48.058;7.810;2023-08-01T04:26:36;8.90;;;3.40;;
1699;SDS011;847;48.058;7.810;2023-08-01T04:29:03;6.13;;;3.77;;
1699;SDS011;847;48.058;7.810;2023-08-01T04:31:31;3.77;;;3.37;;
1699;SDS011;847;48.058;7.810;2023-08-01T04:33:57;5.70;;;3.97;;
1699;SDS011;847;48.058;7.810;2023-08-01T04:36:24;5.33;;;3.50;;
1699;SDS011;847;48.058;7.810;2023-08-01T04:38:51;7.10;;;3.67;;
1699;SDS011;847;48.058;7.810;2023-08-01T04:41:18;6.87;;;3.57;;
1699;SDS011;847;48.058;7.810;2023-08-01T04:43:45;6.10;;;3.73;;
1699;SDS011;847;48.058;7.810;2023-08-01T04:46:11;8.00;;;3.77;;
1699;SDS011;847;48.058;7.810;2023-08-01T04:48:39;5.17;;;3.40;;
1699;SDS011;847;48.058;7.810;2023-08-01T04:51:06;6.03;;;3.47;;
1699;SDS011;847;48.058;7.810;2023-08-01T04:53:33;7.27;;;3.80;;
1699;SDS011;847;48.058;7.810;2023-08-01T04:56:00;5.80;;;3.30;;
1699;SDS011;847;48.058;7.810;2023-08-01T04:58:26;5.83;;;3.60;;
1699;SDS011;847;48.058;7.810;2023-08-01T05:00:53;4.47;;;3.03;;
1699;SDS011;847;48.058;7.810;2023-08-01T05:03:20;5.17;;;3.33;;
1699;SDS011;847;48.058;7.810;2023-08-01T05:05:48;6.57;;;3.60;;
1699;SDS011;847;48.058;7.810;2023-08-01T05:08:14;8.30;;;4.00;;
1699;SDS011;847;48.058;7.810;2023-08-01T05:10:41;4.87;;;3.70;;
1699;SDS011;847;48.058;7.810;2023-08-01T05:13:08;7.00;;;3.57;;
1699;SDS011;847;48.058;7.810;2023-08-01T05:15:35;4.07;;;2.90;;
1699;SDS011;847;48.058;7.810;2023-08-01T05:18:02;4.13;;;3.27;;
1699;SDS011;847;48.058;7.810;2023-08-01T05:20:28;4.80;;;3.77;;
1699;SDS011;847;48.058;7.810;2023-08-01T05:22:57;5.03;;;3.70;;
1699;SDS011;847;48.058;7.810;2023-08-01T05:25:24;3.73;;;3.20;;
1699;SDS011;847;48.058;7.810;2023-08-01T05:27:50;9.33;;;3.83;;
1699;SDS011;847;48.058;7.810;2023-08-01T05:30:17;4.43;;;3.60;;
1699;SDS011;847;48.058;7.810;2023-08-01T05:32:44;4.27;;;3.60;;
1699;SDS011;847;48.058;7.810;2023-08-01T05:35:12;3.60;;;3.30;;
1699;SDS011;847;48.058;7.810;2023-08-01T05:37:38;3.87;;;3.30;;
1699;SDS011;847;48.058;7.810;2023-08-01T05:40:07;9.37;;;5.10;;
1699;SDS011;847;48.058;7.810;2023-08-01T05:42:35;3.90;;;2.83;;
1699;SDS011;847;48.058;7.810;2023-08-01T05:45:02;5.03;;;3.80;;
1699;SDS011;847;48.058;7.810;2023-08-01T05:47:30;4.93;;;3.70;;
1699;SDS011;847;48.058;7.810;2023-08-01T05:49:56;5.50;;;4.07;;
1699;SDS011;847;48.058;7.810;2023-08-01T05:52:23;5.67;;;3.60;;
1699;SDS011;847;48.058;7.810;2023-08-01T05:54:50;7.03;;;4.13;;
1699;SDS011;847;48.058;7.810;2023-08-01T05:57:18;6.60;;;4.17;;
1699;SDS011;847;48.058;7.810;2023-08-01T05:59:45;5.80;;;3.90;;
1699;SDS011;847;48.058;7.810;2023-08-01T06:02:12;6.33;;;3.60;;
1699;SDS011;847;48.058;7.810;2023-08-01T06:04:38;5.10;;;3.73;;
1699;SDS011;847;48.058;7.810;2023-08-01T06:07:05;9.00;;;4.33;;
1699;SDS011;847;48.058;7.810;2023-08-01T06:09:32;4.97;;;4.43;;
1699;SDS011;847;48.058;7.810;2023-08-01T06:11:59;5.10;;;3.70;;
1699;SDS011;847;48.058;7.810;2023-08-01T06:14:27;4.73;;;3.67;;
1699;SDS011;847;48.058;7.810;2023-08-01T06:16:54;6.40;;;3.80;;
1699;SDS011;847;48.058;7.810;2023-08-01T06:19:20;4.73;;;3.60;;
1699;SDS011;847;48.058;7.810;2023-08-01T06:21:47;4.40;;;3.70;;
1699;SDS011;847;48.058;7.810;2023-08-01T06:24:14;5.07;;;3.27;;
1699;SDS011;847;48.058;7.810;2023-08-01T06:26:41;7.30;;;4.17;;
1699;SDS011;847;48.058;7.810;2023-08-01T06:29:07;4.30;;;3.53;;
1699;SDS011;847;48.058;7.810;2023-08-01T06:31:35;4.63;;;3.80;;
1699;SDS011;847;48.058;7.810;2023-08-01T06:34:02;7.67;;;4.40;;
1699;SDS011;847;48.058;7.810;2023-08-01T06:36:29;5.67;;;3.87;;
1699;SDS011;847;48.058;7.810;2023-08-01T06:38:57;5.40;;;3.90;;
1699;SDS011;847;48.058;7.810;2023-08-01T06:41:24;6.37;;;3.90;;
1699;SDS011;847;48.058;7.810;2023-08-01T06:43:50;7.67;;;3.60;;
1699;SDS011;847;48.058;7.810;2023-08-01T06:46:17;5.77;;;4.10;;
1699;SDS011;847;48.058;7.810;2023-08-01T06:48:45;5.40;;;3.77;;
1699;SDS011;847;48.058;7.810;2023-08-01T06:51:12;4.80;;;3.37;;
1699;SDS011;847;48.058;7.810;2023-08-01T06:53:41;8.23;;;4.70;;
1699;SDS011;847;48.058;7.810;2023-08-01T06:56:09;4.07;;;3.30;;
1699;SDS011;847;48.058;7.810;2023-08-01T06:58:36;4.60;;;3.80;;
1699;SDS011;847;48.058;7.810;2023-08-01T07:01:02;5.10;;;3.80;;
1699;SDS011;847;48.058;7.810;2023-08-01T07:03:29;4.73;;;3.90;;
1699;SDS011;847;48.058;7.810;2023-08-01T07:05:57;6.00;;;4.10;;
1699;SDS011;847;48.058;7.810;2023-08-01T07:08:24;6.30;;;4.20;;
1699;SDS011;847;48.058;7.810;2023-08-01T07:10:51;6.10;;;3.90;;
1699;SDS011;847;48.058;7.810;2023-08-01T07:13:18;5.90;;;3.40;;
1699;SDS011;847;48.058;7.810;2023-08-01T07:15:46;3.93;;;3.27;;
1699;SDS011;847;48.058;7.810;2023-08-01T07:18:13;4.40;;;3.60;;
1699;SDS011;847;48.058;7.810;2023-08-01T07:20:40;5.13;;;3.50;;
1699;SDS011;847;48.058;7.810;2023-08-01T07:23:08;4.87;;;3.40;;
1699;SDS011;847;48.058;7.810;2023-08-01T07:25:34;4.80;;;3.40;;
1699;SDS011;847;48.058;7.810;2023-08-01T07:28:01;8.20;;;4.07;;
1699;SDS011;847;48.058;7.810;2023-08-01T07:30:28;8.77;;;4.20;;
1699;SDS011;847;48.058;7.810;2023-08-01T07:32:55;6.63;;;3.67;;
1699;SDS011;847;48.058;7.810;2023-08-01T07:35:22;6.30;;;4.07;;
1699;SDS011;847;48.058;7.810;2023-08-01T07:37:48;5.63;;;3.90;;
1699;SDS011;847;48.058;7.810;2023-08-01T07:40:17;5.30;;;3.60;;
1699;SDS011;847;48.058;7.810;2023-08-01T07:42:43;4.77;;;3.40;;
1699;SDS011;847;48.058;7.810;2023-08-01T07:45:11;5.60;;;3.90;;
1699;SDS011;847;48.058;7.810;2023-08-01T07:47:38;4.30;;;3.33;;
1699;SDS011;847;48.058;7.810;2023-08-01T07:50:05;5.53;;;3.27;;
1699;SDS011;847;48.058;7.810;2023-08-01T07:52:32;4.83;;;3.27;;
1699;SDS011;847;48.058;7.810;2023-08-01T07:54:59;5.50;;;3.40;;
1699;SDS011;847;48.058;7.810;2023-08-01T07:57:27;7.17;;;3.93;;
1699;SDS011;847;48.058;7.810;2023-08-01T07:59:54;5.20;;;3.63;;
1699;SDS011;847;48.058;7.810;2023-08-01T08:02:21;3.50;;;3.20;;
1699;SDS011;847;48.058;7.810;2023-08-01T08:04:47;4.70;;;4.17;;
1699;SDS011;847;48.058;7.810;2023-08-01T08:07:14;5.10;;;3.63;;
1699;SDS011;847;48.058;7.810;2023-08-01T08:09:41;4.37;;;3.30;;
1699;SDS011;847;48.058;7.810;2023-08-01T08:12:07;5.10;;;2.97;;
1699;SDS011;847;48.058;7.810;2023-08-01T08:14:35;4.30;;;2.90;;
1699;SDS011;847;48.058;7.810;2023-08-01T08:17:03;5.20;;;3.57;;
1699;SDS011;847;48.058;7.810;2023-08-01T08:19:30;6.13;;;3.17;;
1699;SDS011;847;48.058;7.810;2023-08-01T08:21:57;3.77;;;3.10;;
1699;SDS011;847;48.058;7.810;2023-08-01T08:24:23;4.07;;;2.87;;
1699;SDS011;847;48.058;7.810;2023-08-01T08:26:50;5.07;;;3.20;;
1699;SDS011;847;48.058;7.810;2023-08-01T08:29:17;6.87;;;3.87;;
1699;SDS011;847;48.058;7.810;2023-08-01T08:31:45;4.50;;;3.20;;
1699;SDS011;847;48.058;7.810;2023-08-01T08:34:12;4.07;;;2.60;;
1699;SDS011;847;48.058;7.810;2023-08-01T08:36:39;3.47;;;2.80;;
1699;SDS011;847;48.058;7.810;2023-08-01T08:39:05;4.50;;;3.17;;
1699;SDS011;847;48.058;7.810;2023-08-01T08:41:35;5.13;;;3.27;;
1699;SDS011;847;48.058;7.810;2023-08-01T08:44:05;3.70;;;3.40;;
1699;SDS011;847;48.058;7.810;2023-08-01T08:46:34;3.00;;;2.60;;
1699;SDS011;847;48.058;7.810;2023-08-01T08:49:08;4.80;;;3.10;;
1699;SDS011;847;48.058;7.810;2023-08-01T08:51:34;3.63;;;2.63;;
1699;SDS011;847;48.058;7.810;2023-08-01T08:54:03;3.57;;;3.13;;
1699;SDS011;847;48.058;7.810;2023-08-01T08:56:31;4.17;;;3.07;;
1699;SDS011;847;48.058;7.810;2023-08-01T08:58:59;4.00;;;2.87;;
1699;SDS011;847;48.058;7.810;2023-08-01T09:01:26;3.40;;;2.60;;
1699;SDS011;847;48.058;7.810;2023-08-01T09:03:53;4.30;;;2.87;;
1699;SDS011;847;48.058;7.810;2023-08-01T09:06:28;2.87;;;2.60;;
1699;SDS011;847;48.058;7.810;2023-08-01T09:08:58;3.63;;;2.83;;
1699;SDS011;847;48.058;7.810;2023-08-01T09:11:30;3.70;;;2.77;;
1699;SDS011;847;48.058;7.810;2023-08-01T09:14:05;3.90;;;2.23;;
1699;SDS011;847;48.058;7.810;2023-08-01T09:16:32;3.03;;;2.73;;
1699;SDS011;847;48.058;7.810;2023-08-01T09:18:59;4.87;;;2.50;;
1699;SDS011;847;48.058;7.810;2023-08-01T09:21:30;4.50;;;2.70;;
1699;SDS011;847;48.058;7.810;2023-08-01T09:24:07;4.10;;;3.00;;
1699;SDS011;847;48.058;7.810;2023-08-01T09:26:34;3.80;;;3.20;;
1699;SDS011;847;48.058;7.810;2023-08-01T09:29:01;3.63;;;2.60;;
1699;SDS011;847;48.058;7.810;2023-08-01T09:31:28;3.13;;;2.40;;
1699;SDS011;847;48.058;7.810;2023-08-01T09:33:56;3.10;;;2.60;;
1699;SDS011;847;48.058;7.810;2023-08-01T09:36:23;5.90;;;3.20;;
1699;SDS011;847;48.058;7.810;2023-08-01T09:38:57;3.53;;;2.50;;
1699;SDS011;847;48.058;7.810;2023-08-01T09:41:24;3.30;;;2.33;;
1699;SDS011;847;48.058;7.810;2023-08-01T09:43:51;4.60;;;2.63;;
1699;SDS011;847;48.058;7.810;2023-08-01T09:46:18;3.50;;;2.70;;
1699;SDS011;847;48.058;7.810;2023-08-01T09:48:45;3.37;;;2.40;;
1699;SDS011;847;48.058;7.810;2023-08-01T09:51:12;2.93;;;2.63;;
1699;SDS011;847;48.058;7.810;2023-08-01T09:53:47;4.10;;;2.83;;
1699;SDS011;847;48.058;7.810;2023-08-01T09:56:16;5.80;;;2.30;;
1699;SDS011;847;48.058;7.810;2023-08-01T09:58:45;4.33;;;2.43;;
1699;SDS011;847;48.058;7.810;2023-08-01T10:01:13;5.53;;;2.60;;
1699;SDS011;847;48.058;7.810;2023-08-01T10:03:41;3.00;;;2.70;;
1699;SDS011;847;48.058;7.810;2023-08-01T10:06:12;4.87;;;2.90;;
1699;SDS011;847;48.058;7.810;2023-08-01T10:08:43;3.60;;;2.83;;
1699;SDS011;847;48.058;7.810;2023-08-01T10:11:11;2.80;;;2.40;;
1699;SDS011;847;48.058;7.810;2023-08-01T10:13:39;5.17;;;3.03;;
1699;SDS011;847;48.058;7.810;2023-08-01T10:16:07;3.17;;;2.73;;
1699;SDS011;847;48.058;7.810;2023-08-01T10:18:34;3.33;;;2.60;;
1699;SDS011;847;48.058;7.810;2023-08-01T10:21:03;2.60;;;2.20;;
1699;SDS011;847;48.058;7.810;2023-08-01T10:23:31;2.97;;;1.90;;
1699;SDS011;847;48.058;7.810;2023-08-01T10:25:59;2.20;;;2.00;;
1699;SDS011;847;48.058;7.810;2023-08-01T10:28:32;5.00;;;2.53;;
1699;SDS011;847;48.058;7.810;2023-08-01T10:31:08;4.00;;;2.57;;
1699;SDS011;847;48.058;7.810;2023-08-01T10:33:36;5.63;;;2.40;;
1699;SDS011;847;48.058;7.810;2023-08-01T10:36:12;4.60;;;2.50;;
1699;SDS011;847;48.058;7.810;2023-08-01T10:38:48;6.13;;;2.90;;
1699;SDS011;847;48.058;7.810;2023-08-01T10:41:19;2.97;;;2.30;;
1699;SDS011;847;48.058;7.810;2023-08-01T10:43:47;4.47;;;2.90;;
1699;SDS011;847;48.058;7.810;2023-08-01T10:46:15;4.00;;;2.57;;
1699;SDS011;847;48.058;7.810;2023-08-01T10:48:48;2.50;;;2.20;;
1699;SDS011;847;48.058;7.810;2023-08-01T10:51:15;3.43;;;2.57;;
1699;SDS011;847;48.058;7.810;2023-08-01T10:53:42;4.70;;;2.30;;
1699;SDS011;847;48.058;7.810;2023-08-01T10:56:15;3.20;;;2.00;;
1699;SDS011;847;48.058;7.810;2023-08-01T10:58:42;3.30;;;2.00;;
1699;SDS011;847;48.058;7.810;2023-08-01T11:01:09;4.20;;;2.57;;
1699;SDS011;847;48.058;7.810;2023-08-01T11:03:37;3.47;;;2.00;;
1699;SDS011;847;48.058;7.810;2023-08-01T11:06:05;3.40;;;2.67;;
1699;SDS011;847;48.058;7.810;2023-08-01T11:08:35;2.00;;;1.80;;
1699;SDS011;847;48.058;7.810;2023-08-01T11:11:01;2.30;;;2.10;;
1699;SDS011;847;48.058;7.810;2023-08-01T11:13:29;2.67;;;2.13;;
1699;SDS011;847;48.058;7.810;2023-08-01T11:15:57;4.57;;;2.10;;
1699;SDS011;847;48.058;7.810;2023-08-01T11:18:23;2.07;;;1.50;;
1699;SDS011;847;48.058;7.810;2023-08-01T11:20:52;3.40;;;2.00;;
1699;SDS011;847;48.058;7.810;2023-08-01T11:23:18;4.30;;;1.80;;
1699;SDS011;847;48.058;7.810;2023-08-01T11:25:53;3.20;;;2.00;;
1699;SDS011;847;48.058;7.810;2023-08-01T11:28:20;3.10;;;1.83;;
1699;SDS011;847;48.058;7.810;2023-08-01T11:30:48;1.93;;;1.83;;
1699;SDS011;847;48.058;7.810;2023-08-01T11:33:15;1.70;;;1.60;;
1699;SDS011;847;48.058;7.810;2023-08-01T11:35:42;3.10;;;1.87;;
1699;SDS011;847;48.058;7.810;2023-08-01T11:38:10;3.00;;;2.00;;
1699;SDS011;847;48.058;7.810;2023-08-01T11:40:37;2.70;;;1.33;;
1699;SDS011;847;48.058;7.810;2023-08-01T11:43:04;2.30;;;1.40;;
1699;SDS011;847;48.058;7.810;2023-08-01T11:45:31;1.37;;;1.07;;
1699;SDS011;847;48.058;7.810;2023-08-01T11:47:58;1.33;;;1.23;;
1699;SDS011;847;48.058;7.810;2023-08-01T11:50:26;1.20;;;1.10;;
1699;SDS011;847;48.058;7.810;2023-08-01T11:52:53;2.50;;;1.33;;
1699;SDS011;847;48.058;7.810;2023-08-01T11:55:25;1.87;;;0.70;;
1699;SDS011;847;48.058;7.810;2023-08-01T11:57:54;2.23;;;0.90;;
1699;SDS011;847;48.058;7.810;2023-08-01T12:00:22;1.23;;;0.90;;
1699;SDS011;847;48.058;7.810;2023-08-01T12:02:49;1.07;;;0.80;;
1699;SDS011;847;48.058;7.810;2023-08-01T12:05:22;1.33;;;0.93;;
1699;SDS011;847;48.058;7.810;2023-08-01T12:07:49;1.17;;;0.73;;
1699;SDS011;847;48.058;7.810;2023-08-01T12:10:16;1.07;;;0.80;;
1699;SDS011;847;48.058;7.810;2023-08-01T12:12:45;1.80;;;0.60;;
1699;SDS011;847;48.058;7.810;2023-08-01T12:15:13;0.80;;;0.77;;
1699;SDS011;847;48.058;7.810;2023-08-01T12:17:40;5.53;;;1.40;;
1699;SDS011;847;48.058;7.810;2023-08-01T12:20:07;2.03;;;1.40;;
1699;SDS011;847;48.058;7.810;2023-08-01T12:22:34;1.20;;;1.00;;
1699;SDS011;847;48.058;7.810;2023-08-01T12:25:01;1.73;;;1.63;;
1699;SDS011;847;48.058;7.810;2023-08-01T12:27:28;1.80;;;1.00;;
1699;SDS011;847;48.058;7.810;2023-08-01T12:29:56;1.50;;;0.67;;
1699;SDS011;847;48.058;7.810;2023-08-01T12:32:23;2.27;;;1.00;;
1699;SDS011;847;48.058;7.810;2023-08-01T12:34:50;1.10;;;1.00;;
1699;SDS011;847;48.058;7.810;2023-08-01T12:37:16;1.17;;;1.00;;
1699;SDS011;847;48.058;7.810;2023-08-01T12:39:43;1.67;;;1.23;;
1699;SDS011;847;48.058;7.810;2023-08-01T12:42:10;2.90;;;0.90;;
1699;SDS011;847;48.058;7.810;2023-08-01T12:44:37;0.90;;;0.90;;
1699;SDS011;847;48.058;7.810;2023-08-01T12:47:05;1.73;;;1.30;;
1699;SDS011;847;48.058;7.810;2023-08-01T12:49:33;1.33;;;0.90;;
1699;SDS011;847;48.058;7.810;2023-08-01T12:52:02;1.13;;;1.00;;
1699;SDS011;847;48.058;7.810;2023-08-01T12:54:29;1.87;;;1.00;;
1699;SDS011;847;48.058;7.810;2023-08-01T12:56:56;1.37;;;1.10;;
1699;SDS011;847;48.058;7.810;2023-08-01T12:59:23;3.43;;;1.20;;
1699;SDS011;847;48.058;7.810;2023-08-01T13:01:49;1.07;;;0.80;;
1699;SDS011;847;48.058;7.810;2023-08-01T13:04:18;0.83;;;0.83;;
1699;SDS011;847;48.058;7.810;2023-08-01T13:06:44;1.10;;;1.00;;
1699;SDS011;847;48.058;7.810;2023-08-01T13:09:11;1.60;;;1.00;;
1699;SDS011;847;48.058;7.810;2023-08-01T13:11:38;1.43;;;1.03;;
1699;SDS011;847;48.058;7.810;2023-08-01T13:14:07;1.17;;;0.70;;
1699;SDS011;847;48.058;7.810;2023-08-01T13:16:34;2.00;;;1.10;;
1699;SDS011;847;48.058;7.810;2023-08-01T13:19:00;1.03;;;0.83;;
1699;SDS011;847;48.058;7.810;2023-08-01T13:21:28;1.10;;;0.90;;
1699;SDS011;847;48.058;7.810;2023-08-01T13:23:55;1.20;;;0.93;;
1699;SDS011;847;48.058;7.810;2023-08-01T13:26:22;0.97;;;0.80;;
1699;SDS011;847;48.058;7.810;2023-08-01T13:28:48;1.40;;;0.90;;
1699;SDS011;847;48.058;7.810;2023-08-01T13:31:15;1.10;;;0.93;;
1699;SDS011;847;48.058;7.810;2023-08-01T13:33:42;1.43;;;1.00;;
1699;SDS011;847;48.058;7.810;2023-08-01T13:36:09;1.23;;;0.87;;
1699;SDS011;847;48.058;7.810;2023-08-01T13:38:37;0.77;;;0.77;;
1699;SDS011;847;48.058;7.810;2023-08-01T13:41:03;1.80;;;1.07;;
1699;SDS011;847;48.058;7.810;2023-08-01T13:43:30;1.30;;;1.10;;
1699;SDS011;847;48.058;7.810;2023-08-01T13:45:57;1.03;;;0.87;;
1699;SDS011;847;48.058;7.810;2023-08-01T13:48:23;1.10;;;1.00;;
1699;SDS011;847;48.058;7.810;2023-08-01T13:50:50;2.03;;;0.90;;
1699;SDS011;847;48.058;7.810;2023-08-01T13:53:18;1.47;;;0.90;;
1699;SDS011;847;48.058;7.810;2023-08-01T13:55:46;1.00;;;0.77;;
1699;SDS011;847;48.058;7.810;2023-08-01T13:58:12;1.27;;;1.17;;
1699;SDS011;847;48.058;7.810;2023-08-01T14:00:39;2.50;;;1.00;;
1699;SDS011;847;48.058;7.810;2023-08-01T14:03:06;1.20;;;0.97;;
1699;SDS011;847;48.058;7.810;2023-08-01T14:05:33;1.30;;;0.83;;
1699;SDS011;847;48.058;7.810;2023-08-01T14:08:02;0.93;;;0.73;;
1699;SDS011;847;48.058;7.810;2023-08-01T14:10:29;1.00;;;0.80;;
1699;SDS011;847;48.058;7.810;2023-08-01T14:12:57;1.37;;;1.00;;
1699;SDS011;847;48.058;7.810;2023-08-01T14:15:24;1.10;;;1.00;;
1699;SDS011;847;48.058;7.810;2023-08-01T14:17:52;1.17;;;0.90;;
1699;SDS011;847;48.058;7.810;2023-08-01T14:20:18;1.00;;;0.90;;
1699;SDS011;847;48.058;7.810;2023-08-01T14:22:45;1.50;;;0.90;;
1699;SDS011;847;48.058;7.810;2023-08-01T14:25:12;1.20;;;0.90;;
1699;SDS011;847;48.058;7.810;2023-08-01T14:27:39;0.80;;;0.80;;
1699;SDS011;847;48.058;7.810;2023-08-01T14:30:07;1.10;;;0.90;;
1699;SDS011;847;48.058;7.810;2023-08-01T14:32:36;1.63;;;0.80;;
1699;SDS011;847;48.058;7.810;2023-08-01T14:35:03;1.30;;;1.00;;
1699;SDS011;847;48.058;7.810;2023-08-01T14:37:31;1.07;;;1.00;;
1699;SDS011;847;48.058;7.810;2023-08-01T14:39:57;1.20;;;1.10;;
1699;SDS011;847;48.058;7.810;2023-08-01T14:42:24;0.60;;;0.60;;
1699;SDS011;847;48.058;7.810;2023-08-01T14:44:51;0.97;;;0.87;;
1699;SDS011;847;48.058;7.810;2023-08-01T14:47:20;1.70;;;1.10;;
1699;SDS011;847;48.058;7.810;2023-08-01T14:49:47;1.43;;;1.10;;
1699;SDS011;847;48.058;7.810;2023-08-01T14:52:14;0.93;;;0.90;;
1699;SDS011;847;48.058;7.810;2023-08-01T14:54:41;1.77;;;1.13;;
1699;SDS011;847;48.058;7.810;2023-08-01T14:57:08;1.27;;;1.07;;
1699;SDS011;847;48.058;7.810;2023-08-01T14:59:34;1.43;;;1.30;;
1699;SDS011;847;48.058;7.810;2023-08-01T15:02:01;1.67;;;1.20;;
1699;SDS011;847;48.058;7.810;2023-08-01T15:04:29;1.47;;;1.10;;
1699;SDS011;847;48.058;7.810;2023-08-01T15:06:56;1.27;;;1.17;;
1699;SDS011;847;48.058;7.810;2023-08-01T15:09:23;1.37;;;0.97;;
1699;SDS011;847;48.058;7.810;2023-08-01T15:11:50;1.93;;;1.20;;
1699;SDS011;847;48.058;7.810;2023-08-01T15:14:16;2.27;;;1.27;;
1699;SDS011;847;48.058;7.810;2023-08-01T15:16:43;1.87;;;1.53;;
1699;SDS011;847;48.058;7.810;2023-08-01T15:19:10;1.37;;;1.23;;
1699;SDS011;847;48.058;7.810;2023-08-01T15:21:38;1.20;;;1.10;;
1699;SDS011;847;48.058;7.810;2023-08-01T15:24:05;1.50;;;1.40;;
1699;SDS011;847;48.058;7.810;2023-08-01T15:26:31;1.20;;;1.10;;
1699;SDS011;847;48.058;7.810;2023-08-01T15:28:58;1.57;;;1.47;;
1699;SDS011;847;48.058;7.810;2023-08-01T15:31:25;1.43;;;1.23;;